createdAt,value
2024-01-24T00:02:31.681Z,7.98
2024-01-24T00:07:34.692Z,9.58
2024-01-24T00:12:37.670Z,8.57
2024-01-24T00:17:41.490Z,8.48
2024-01-24T00:22:44.339Z,9.08
2024-01-24T00:27:47.765Z,7.71
2024-01-24T00:32:50.663Z,9.15
2024-01-24T00:37:53.419Z,7.54
2024-01-24T00:42:56.181Z,8.60
2024-01-24T00:47:59.121Z,8.88
2024-01-24T00:53:05.468Z,7.45
2024-01-24T00:58:08.760Z,8.95
2024-01-24T01:03:11.601Z,7.51
2024-01-24T01:08:14.684Z,8.89
2024-01-24T01:13:17.608Z,7.88
2024-01-24T01:18:20.400Z,8.15
2024-01-24T01:23:23.372Z,8.47
2024-01-24T01:28:26.129Z,7.59
2024-01-24T01:33:28.995Z,8.60
2024-01-24T01:38:32.039Z,7.62
2024-01-24T01:43:34.834Z,8.40
2024-01-24T01:48:38.895Z,7.65
2024-01-24T01:53:41.918Z,8.65
2024-01-24T01:58:46.313Z,7.28
2024-01-24T02:03:49.389Z,8.81
2024-01-24T02:08:52.853Z,7.18
2024-01-24T02:14:00.445Z,8.22
2024-01-24T02:19:03.834Z,7.41
2024-01-24T02:24:11.701Z,7.67
2024-01-24T02:29:15.020Z,7.75
2024-01-24T02:34:17.935Z,7.39
2024-01-24T02:39:20.908Z,8.00
2024-01-24T02:44:23.866Z,7.08
2024-01-24T02:49:26.702Z,8.22
2024-01-24T02:54:30.545Z,7.35
2024-01-24T02:59:33.583Z,8.28
2024-01-24T03:04:36.509Z,7.23
2024-01-24T03:09:39.409Z,8.35
2024-01-24T03:14:42.330Z,7.00
2024-01-24T03:19:45.733Z,8.16
2024-01-24T03:24:48.788Z,7.36
2024-01-24T03:29:51.614Z,8.03
2024-01-24T03:34:55.772Z,7.33
2024-01-24T03:39:58.808Z,7.82
2024-01-24T03:45:02.009Z,7.79
2024-01-24T03:50:05.433Z,7.82
2024-01-24T03:55:08.963Z,8.27
2024-01-24T04:00:12.887Z,7.19
2024-01-24T04:05:16.277Z,7.78
2024-01-24T04:10:19.057Z,7.33
2024-01-24T04:15:21.885Z,8.09
2024-01-24T04:20:24.662Z,6.93
2024-01-24T04:25:27.589Z,7.99
2024-01-24T04:30:30.677Z,6.75
2024-01-24T04:35:33.605Z,7.91
2024-01-24T04:40:36.366Z,6.79
2024-01-24T04:45:39.120Z,8.28
2024-01-24T04:50:42.103Z,7.13
2024-01-24T04:55:45.511Z,7.76
2024-01-24T05:00:49.519Z,7.43
2024-01-24T05:06:00.985Z,7.98
2024-01-24T05:11:07.887Z,8.55
2024-01-24T05:16:10.866Z,7.09
2024-01-24T05:21:13.692Z,8.19
2024-01-24T05:26:16.741Z,8.49
2024-01-24T05:31:19.579Z,7.07
2024-01-24T05:36:22.898Z,8.23
2024-01-24T05:41:26.111Z,8.91
2024-01-24T05:46:28.972Z,7.06
2024-01-24T05:51:31.842Z,8.34
2024-01-24T05:56:34.716Z,7.85
2024-01-24T06:01:37.984Z,7.47
2024-01-24T06:06:41.736Z,8.42
2024-01-24T06:16:47.625Z,8.53
2024-01-24T06:21:50.562Z,7.31
2024-01-24T06:26:53.855Z,7.80
2024-01-24T06:31:58.429Z,7.97
2024-01-24T06:37:01.326Z,7.71
2024-01-24T06:42:04.397Z,8.59
2024-01-24T06:47:07.406Z,7.12
2024-01-24T06:52:10.206Z,7.81
2024-01-24T06:57:13.108Z,8.28
2024-01-24T07:02:15.972Z,8.42
2024-01-24T07:07:19.011Z,8.83
2024-01-24T07:12:22.185Z,8.71
2024-01-24T07:17:25.258Z,8.98
2024-01-24T07:22:28.876Z,7.74
2024-01-24T07:27:33.094Z,8.67
2024-01-24T07:32:40.715Z,8.84
2024-01-24T07:37:45.660Z,8.91
2024-01-24T07:42:55.400Z,8.74
2024-01-24T07:47:59.461Z,8.95
2024-01-24T07:53:02.379Z,9.55
2024-01-24T07:58:05.516Z,9.36
2024-01-24T08:03:09.294Z,7.88
2024-01-24T08:08:12.500Z,8.70
2024-01-24T08:13:15.720Z,9.17
2024-01-24T08:18:19.195Z,9.30
2024-01-24T08:23:26.522Z,9.70
2024-01-24T08:28:31.894Z,9.11
2024-01-24T08:33:34.952Z,8.56
2024-01-24T08:38:38.365Z,9.03
2024-01-24T08:43:41.364Z,9.31
2024-01-24T08:48:44.702Z,9.44
2024-01-24T08:53:47.848Z,9.61
2024-01-24T08:58:50.869Z,9.37
2024-01-24T09:03:54.898Z,10.01
2024-01-24T09:08:57.959Z,9.56
2024-01-24T09:14:00.938Z,9.39
2024-01-24T09:19:05.239Z,9.89
2024-01-24T09:24:08.883Z,10.20
2024-01-24T09:29:13.777Z,10.49
2024-01-24T09:34:18.189Z,10.41
2024-01-24T09:39:21.367Z,10.53
2024-01-24T09:44:26.417Z,10.70
2024-01-24T09:49:32.441Z,10.91
2024-01-24T09:54:36.456Z,11.11
2024-01-24T09:59:39.563Z,10.68
2024-01-24T10:04:45.450Z,11.40
2024-01-24T10:09:49.259Z,11.54
2024-01-24T10:14:53.171Z,11.44
2024-01-24T10:19:56.261Z,11.47
2024-01-24T10:24:59.814Z,11.66
2024-01-24T10:30:03.318Z,11.84
2024-01-24T10:35:07.805Z,11.71
2024-01-24T10:40:16.267Z,12.01
2024-01-24T10:45:21.556Z,11.88
2024-01-24T10:50:26.033Z,12.10
2024-01-24T10:55:31.267Z,11.94
2024-01-24T11:00:34.916Z,12.59
2024-01-24T11:05:55.755Z,12.05
2024-01-24T11:11:04.631Z,12.03
2024-01-24T11:16:32.834Z,12.63
2024-01-24T11:21:36.732Z,12.92
2024-01-24T11:26:39.970Z,12.46
2024-01-24T11:31:44.953Z,12.37
2024-01-24T11:36:52.821Z,12.77
2024-01-24T11:42:25.240Z,13.06
2024-01-24T11:47:28.535Z,13.03
2024-01-24T11:52:31.426Z,13.08
2024-01-24T11:57:34.681Z,13.40
2024-01-24T12:02:38.129Z,13.73
2024-01-24T12:07:41.061Z,12.34
2024-01-24T12:12:44.879Z,13.61
2024-01-24T12:17:47.788Z,12.88
2024-01-24T12:22:50.709Z,12.26
2024-01-24T12:27:54.225Z,13.14
2024-01-24T12:32:58.935Z,13.95
2024-01-24T12:38:04.036Z,13.59
2024-01-24T12:43:07.133Z,12.67
2024-01-24T12:48:12.505Z,13.45
2024-01-24T12:53:15.681Z,14.25
2024-01-24T12:58:19.102Z,13.63
2024-01-24T13:03:23.463Z,13.15
2024-01-24T13:08:27.686Z,13.75
2024-01-24T13:13:30.902Z,12.91
2024-01-24T13:18:34.031Z,13.91
2024-01-24T13:23:36.931Z,12.65
2024-01-24T13:28:41.126Z,14.29
2024-01-24T13:33:46.496Z,12.58
2024-01-24T13:38:50.249Z,13.31
2024-01-24T13:43:53.954Z,12.45
2024-01-24T13:48:57.202Z,12.64
2024-01-24T13:54:00.219Z,12.63
2024-01-24T13:59:03.437Z,11.94
2024-01-24T14:04:06.795Z,12.73
2024-01-24T14:09:11.713Z,11.61
2024-01-24T14:14:14.673Z,12.61
2024-01-24T14:19:17.687Z,11.28
2024-01-24T14:24:21.613Z,12.47
2024-01-24T14:29:24.949Z,11.35
2024-01-24T14:34:28.012Z,12.34
2024-01-24T14:39:31.156Z,12.19
2024-01-24T14:44:34.049Z,11.52
2024-01-24T14:49:36.958Z,12.38
2024-01-24T14:54:40.866Z,10.82
2024-01-24T14:59:44.090Z,12.21
2024-01-24T15:04:46.926Z,11.36
2024-01-24T15:09:50.475Z,12.54
2024-01-24T15:14:53.523Z,11.23
2024-01-24T15:19:57.053Z,12.01
2024-01-24T15:25:03.147Z,12.55
2024-01-24T15:30:07.696Z,12.68
2024-01-24T15:35:11.392Z,11.17
2024-01-24T15:40:17.920Z,12.23
2024-01-24T15:45:26.113Z,12.53
2024-01-24T15:50:29.307Z,11.44
2024-01-24T15:55:32.998Z,12.52
2024-01-24T16:00:36.079Z,11.20
2024-01-24T16:05:47.287Z,12.49
2024-01-24T16:10:50.557Z,11.60
2024-01-24T16:15:53.805Z,12.37
2024-01-24T16:20:56.760Z,11.88
2024-01-24T16:26:00.052Z,11.03
2024-01-24T16:31:04.036Z,12.46
2024-01-24T16:36:07.423Z,12.61
2024-01-24T16:41:11.877Z,11.34
2024-01-24T16:46:15.743Z,12.24
2024-01-24T16:51:18.695Z,12.61
2024-01-24T16:56:21.595Z,12.18
2024-01-24T17:01:24.634Z,11.82
2024-01-24T17:06:27.651Z,12.50
2024-01-24T17:11:30.645Z,12.44
2024-01-24T17:16:33.626Z,12.48
2024-01-24T17:21:36.903Z,10.97
2024-01-24T17:26:40.154Z,12.28
2024-01-24T17:31:43.045Z,12.03
2024-01-24T17:36:45.797Z,11.75
2024-01-24T17:41:49.346Z,12.08
2024-01-24T17:46:55.179Z,12.31
2024-01-24T17:51:58.200Z,12.04
2024-01-24T17:57:01.279Z,12.41
2024-01-24T18:02:04.416Z,12.69
2024-01-24T18:07:07.586Z,11.20
2024-01-24T18:12:11.406Z,12.17
2024-01-24T18:17:14.316Z,12.12
2024-01-24T18:22:17.249Z,11.61
2024-01-24T18:27:20.109Z,12.53
2024-01-24T18:32:22.957Z,11.52
2024-01-24T18:37:26.208Z,11.62
2024-01-24T18:42:29.177Z,12.38
2024-01-24T18:47:32.419Z,11.98
2024-01-24T18:52:35.662Z,11.43
2024-01-24T18:57:39.326Z,12.44
2024-01-24T19:02:42.750Z,12.10
2024-01-24T19:07:46.239Z,11.24
2024-01-24T19:12:49.582Z,12.19
2024-01-24T19:17:52.782Z,12.28
2024-01-24T19:22:57.397Z,10.89
2024-01-24T19:28:00.457Z,12.18
2024-01-24T19:33:03.787Z,12.61
2024-01-24T19:38:06.857Z,10.91
2024-01-24T19:43:09.989Z,11.86
2024-01-24T19:48:14.627Z,12.02
2024-01-24T19:53:21.109Z,11.15
2024-01-24T19:58:30.213Z,11.93
2024-01-24T20:03:33.336Z,12.29
2024-01-24T20:08:36.604Z,10.96
2024-01-24T20:13:39.529Z,12.17
2024-01-24T20:18:42.435Z,11.25
2024-01-24T20:23:45.457Z,11.53
2024-01-24T20:28:48.336Z,12.32
2024-01-24T20:33:51.449Z,11.12
2024-01-24T20:38:54.502Z,12.37
2024-01-24T20:43:57.385Z,11.20
2024-01-24T20:49:00.733Z,10.90
2024-01-24T20:54:08.125Z,12.16
2024-01-24T20:59:11.802Z,11.93
2024-01-24T21:04:15.448Z,11.18
2024-01-24T21:09:18.525Z,12.15
2024-01-24T21:14:21.561Z,11.77
2024-01-24T21:19:25.813Z,11.47
2024-01-24T21:24:28.993Z,11.83
2024-01-24T21:29:31.908Z,12.20
2024-01-24T21:34:34.923Z,11.66
2024-01-24T21:39:37.928Z,11.56
2024-01-24T21:44:40.813Z,12.32
2024-01-24T21:49:43.853Z,12.46
2024-01-24T21:54:52.515Z,10.88
2024-01-24T21:59:55.562Z,11.64
2024-01-24T22:04:58.390Z,12.06
2024-01-24T22:10:01.752Z,12.05
2024-01-24T22:15:09.401Z,10.80
2024-01-24T22:20:12.462Z,11.63
2024-01-24T22:25:15.555Z,11.94
2024-01-24T22:30:19.364Z,11.51
2024-01-24T22:35:22.624Z,11.01
2024-01-24T22:40:27.018Z,11.85
2024-01-24T22:45:29.943Z,10.47
2024-01-24T22:50:34.182Z,11.59
2024-01-24T22:55:37.536Z,10.87
2024-01-24T23:00:40.432Z,11.18
2024-01-24T23:05:43.426Z,10.79
2024-01-24T23:10:46.348Z,10.65
2024-01-24T23:15:49.291Z,11.00
2024-01-24T23:20:53.830Z,10.26
2024-01-24T23:25:56.727Z,11.38
2024-01-24T23:30:59.619Z,10.12
2024-01-24T23:36:05.445Z,10.98
2024-01-24T23:41:08.320Z,11.28
2024-01-24T23:46:11.680Z,10.11
2024-01-24T23:51:15.211Z,11.12
2024-01-24T23:56:18.318Z,10.84
